createdAt,value
2019-03-24T00:01:40.782Z,78.83
2019-03-24T00:04:03.897Z,78.74
2019-03-24T00:06:30.961Z,79.15
2019-03-24T00:08:58.010Z,79.14
2019-03-24T00:11:25.401Z,79.12
2019-03-24T00:13:54.625Z,79.24
2019-03-24T00:16:21.720Z,79.31
2019-03-24T00:18:48.769Z,79.41
2019-03-24T00:21:15.951Z,79.45
2019-03-24T00:23:43.030Z,79.41
2019-03-24T00:26:10.073Z,79.58
2019-03-24T00:28:37.107Z,79.73
2019-03-24T00:31:11.231Z,79.86
2019-03-24T00:33:38.303Z,80.07
2019-03-24T00:36:07.051Z,80.26
2019-03-24T00:38:34.136Z,80.54
2019-03-24T00:41:06.059Z,80.50
2019-03-24T00:43:33.364Z,80.76
2019-03-24T00:46:00.669Z,80.67
2019-03-24T00:48:27.809Z,80.63
2019-03-24T00:50:55.053Z,80.59
2019-03-24T00:53:22.256Z,80.98
2019-03-24T00:55:49.323Z,81.06
2019-03-24T00:58:17.411Z,81.22
2019-03-24T01:00:46.247Z,81.36
2019-03-24T01:03:13.681Z,81.27
2019-03-24T01:05:40.809Z,81.29
2019-03-24T01:08:07.932Z,81.34
2019-03-24T01:10:35.040Z,81.34
2019-03-24T01:13:02.139Z,81.23
2019-03-24T01:15:29.187Z,81.37
2019-03-24T01:17:57.426Z,81.25
2019-03-24T01:20:24.612Z,81.24
2019-03-24T01:22:51.626Z,81.05
2019-03-24T01:25:18.871Z,81.33
2019-03-24T01:27:46.025Z,81.21
2019-03-24T01:30:13.593Z,81.11
2019-03-24T01:32:40.703Z,81.22
2019-03-24T01:35:08.156Z,81.50
2019-03-24T01:37:35.471Z,81.70
2019-03-24T01:40:02.780Z,81.84
2019-03-24T01:42:36.272Z,81.96
2019-03-24T01:45:03.935Z,82.19
2019-03-24T01:47:31.030Z,82.38
2019-03-24T01:49:58.074Z,82.50
2019-03-24T01:52:26.690Z,82.42
2019-03-24T01:54:55.826Z,83.33
2019-03-24T01:57:22.863Z,83.22
2019-03-24T01:59:52.803Z,83.39
2019-03-24T02:02:22.012Z,83.39
2019-03-24T02:04:52.026Z,83.57
2019-03-24T02:07:21.328Z,83.68
2019-03-24T02:09:51.511Z,84.13
2019-03-24T02:15:08.570Z,84.26
2019-03-24T02:17:35.701Z,84.58
2019-03-24T02:20:10.729Z,84.44
2019-03-24T02:22:38.340Z,84.41
2019-03-24T02:25:06.209Z,84.58
2019-03-24T02:27:33.333Z,84.81
2019-03-24T02:30:04.375Z,85.03
2019-03-24T02:32:31.411Z,84.95
2019-03-24T02:34:58.415Z,85.23
2019-03-24T02:37:25.477Z,85.19
2019-03-24T02:39:52.478Z,85.45
2019-03-24T02:42:22.036Z,85.80
2019-03-24T02:44:49.130Z,86.01
2019-03-24T02:47:16.540Z,85.86
2019-03-24T02:49:43.895Z,85.82
2019-03-24T02:52:10.973Z,86.01
2019-03-24T02:54:38.059Z,86.17
2019-03-24T02:57:08.166Z,86.08
2019-03-24T02:59:35.170Z,86.15
2019-03-24T03:02:03.038Z,86.49
2019-03-24T03:04:30.487Z,86.74
2019-03-24T03:06:57.527Z,86.83
2019-03-24T03:09:24.748Z,86.92
2019-03-24T03:11:52.728Z,87.14
2019-03-24T03:14:20.541Z,87.20
2019-03-24T03:16:47.586Z,87.32
2019-03-24T03:19:17.616Z,87.47
2019-03-24T03:21:44.696Z,87.42
2019-03-24T03:24:11.885Z,87.43
2019-03-24T03:26:39.059Z,87.53
2019-03-24T03:29:06.343Z,87.47
2019-03-24T03:31:33.462Z,87.85
2019-03-24T03:34:00.879Z,87.93
2019-03-24T03:36:28.370Z,87.90
2019-03-24T03:38:57.538Z,87.43
2019-03-24T03:41:27.640Z,86.88
2019-03-24T03:43:57.125Z,86.55
2019-03-24T03:46:24.184Z,85.89
2019-03-24T03:48:59.066Z,85.68
2019-03-24T03:51:26.113Z,85.58
2019-03-24T03:53:53.166Z,85.19
2019-03-24T03:56:47.230Z,84.58
2019-03-24T03:59:14.337Z,83.69
2019-03-24T04:01:45.868Z,81.47
2019-03-24T04:04:12.904Z,80.92
2019-03-24T04:06:40.059Z,80.52
2019-03-24T04:09:09.822Z,80.23
2019-03-24T04:11:36.927Z,80.35
2019-03-24T04:14:04.058Z,80.46
2019-03-24T04:16:31.264Z,80.32
2019-03-24T04:18:58.356Z,79.90
2019-03-24T04:21:25.888Z,79.66
2019-03-24T04:23:53.067Z,79.25
2019-03-24T04:26:22.904Z,79.14
2019-03-24T04:28:51.238Z,79.09
2019-03-24T04:31:18.370Z,79.08
2019-03-24T04:33:45.471Z,79.18
2019-03-24T04:36:14.676Z,79.10
2019-03-24T04:38:42.042Z,79.01
2019-03-24T04:41:11.898Z,79.18
2019-03-24T04:43:41.051Z,79.30
2019-03-24T04:46:08.095Z,79.70
2019-03-24T04:48:35.114Z,79.40
2019-03-24T04:51:02.541Z,79.33
2019-03-24T04:53:29.549Z,79.61
2019-03-24T04:55:56.631Z,79.95
2019-03-24T04:58:23.791Z,79.90
2019-03-24T05:00:53.029Z,80.02
2019-03-24T05:03:20.092Z,80.10
2019-03-24T05:05:50.184Z,80.20
2019-03-24T05:08:17.219Z,80.40
2019-03-24T05:10:44.401Z,80.40
2019-03-24T05:13:11.584Z,80.69
2019-03-24T05:15:38.866Z,80.38
2019-03-24T05:18:06.356Z,80.12
2019-03-24T05:20:36.187Z,80.29
2019-03-24T05:23:03.597Z,80.50
2019-03-24T05:25:34.492Z,80.79
2019-03-24T05:28:08.552Z,81.09
2019-03-24T05:30:35.693Z,80.87
2019-03-24T05:33:02.745Z,81.85
2019-03-24T05:35:32.433Z,81.72
2019-03-24T05:37:59.505Z,81.72
2019-03-24T05:40:26.512Z,81.86
2019-03-24T05:42:54.163Z,81.71
2019-03-24T05:45:25.440Z,82.01
2019-03-24T05:47:59.815Z,82.10
2019-03-24T05:50:26.896Z,82.22
2019-03-24T05:52:54.059Z,82.44
2019-03-24T05:55:21.303Z,82.37
2019-03-24T05:57:48.644Z,82.25
2019-03-24T06:00:16.134Z,82.18
2019-03-24T06:02:44.495Z,82.30
2019-03-24T06:05:11.833Z,82.34
2019-03-24T06:07:38.961Z,82.17
2019-03-24T06:10:06.790Z,82.41
2019-03-24T06:12:34.217Z,82.47
2019-03-24T06:15:01.358Z,82.68
2019-03-24T06:17:28.405Z,82.32
2019-03-24T06:19:55.520Z,82.28
2019-03-24T06:22:23.189Z,82.40
2019-03-24T06:24:50.801Z,82.40
2019-03-24T06:27:17.943Z,82.64
2019-03-24T06:29:47.011Z,82.53
2019-03-24T06:32:14.104Z,82.03
2019-03-24T06:34:41.246Z,81.93
2019-03-24T06:37:08.393Z,82.16
2019-03-24T06:39:35.909Z,81.94
2019-03-24T06:42:03.071Z,82.15
2019-03-24T06:44:30.184Z,81.99
2019-03-24T06:46:57.312Z,82.69
2019-03-24T06:49:24.650Z,82.29
2019-03-24T06:51:53.175Z,82.33
2019-03-24T06:54:20.271Z,82.07
2019-03-24T06:56:49.225Z,81.96
2019-03-24T06:59:16.790Z,81.83
2019-03-24T07:01:44.038Z,81.83
2019-03-24T07:04:11.131Z,81.62
2019-03-24T07:06:40.345Z,81.73
2019-03-24T07:09:07.556Z,81.65
2019-03-24T07:11:35.086Z,81.70
2019-03-24T07:14:02.384Z,81.49
2019-03-24T07:16:29.806Z,81.54
2019-03-24T07:18:56.894Z,82.19
2019-03-24T07:21:24.321Z,81.91
2019-03-24T07:23:51.508Z,81.54
2019-03-24T07:26:19.325Z,81.67
2019-03-24T07:28:46.403Z,81.37
2019-03-24T07:31:13.616Z,81.40
2019-03-24T07:33:40.991Z,81.65
2019-03-24T07:36:08.098Z,81.72
2019-03-24T07:38:35.143Z,81.80
2019-03-24T07:41:03.487Z,81.83
2019-03-24T07:43:31.284Z,82.37
2019-03-24T07:45:58.613Z,81.89
2019-03-24T07:48:26.023Z,81.88
2019-03-24T07:50:53.201Z,81.45
2019-03-24T07:53:20.293Z,81.38
2019-03-24T07:55:48.212Z,81.02
2019-03-24T07:58:15.399Z,80.91
2019-03-24T08:00:43.361Z,80.80
2019-03-24T08:03:10.594Z,80.71
2019-03-24T08:05:37.744Z,80.71
2019-03-24T08:08:10.796Z,81.00
2019-03-24T08:10:38.248Z,80.71
2019-03-24T08:13:05.646Z,80.59
2019-03-24T08:15:32.959Z,81.69
2019-03-24T08:18:00.056Z,81.68
2019-03-24T08:20:27.277Z,80.76
2019-03-24T08:22:54.460Z,80.93
2019-03-24T08:25:21.936Z,80.83
2019-03-24T08:27:49.211Z,80.80
2019-03-24T08:30:30.066Z,80.72
2019-03-24T08:32:57.210Z,80.73
2019-03-24T08:35:24.784Z,80.02
2019-03-24T08:37:54.447Z,80.69
2019-03-24T08:40:22.498Z,81.29
2019-03-24T08:42:49.995Z,80.63
2019-03-24T08:45:25.686Z,80.60
2019-03-24T08:47:59.871Z,80.40
2019-03-24T08:50:30.981Z,79.93
2019-03-24T08:52:58.168Z,79.96
2019-03-24T08:55:25.316Z,80.62
2019-03-24T08:57:53.110Z,81.06
2019-03-24T09:00:30.108Z,80.41
2019-03-24T09:02:49.347Z,80.12
2019-03-24T09:05:18.531Z,80.26
2019-03-24T09:07:47.092Z,80.10
2019-03-24T09:10:21.325Z,80.88
2019-03-24T09:12:48.469Z,81.12
2019-03-24T09:15:16.039Z,80.54
2019-03-24T09:17:43.239Z,81.04
2019-03-24T09:20:10.751Z,79.97
2019-03-24T09:22:40.932Z,80.48
2019-03-24T09:25:11.487Z,80.02
2019-03-24T09:27:38.732Z,80.16
2019-03-24T09:30:11.895Z,80.50
2019-03-24T09:32:39.703Z,80.05
2019-03-24T09:35:07.113Z,80.48
2019-03-24T09:37:39.145Z,80.26
2019-03-24T09:40:08.723Z,80.32
2019-03-24T09:42:45.184Z,78.80
2019-03-24T09:45:15.770Z,78.74
2019-03-24T09:47:45.505Z,78.59
2019-03-24T09:50:15.346Z,78.67
2019-03-24T09:52:42.513Z,78.31
2019-03-24T09:55:09.901Z,78.46
2019-03-24T09:57:39.602Z,78.39
2019-03-24T10:00:08.375Z,78.27
2019-03-24T10:02:36.525Z,77.88
2019-03-24T10:05:04.429Z,78.60
2019-03-24T10:07:36.853Z,78.42
2019-03-24T10:10:07.067Z,78.70
2019-03-24T10:12:36.014Z,78.84
2019-03-24T10:15:04.284Z,78.89
2019-03-24T10:17:33.126Z,78.70
2019-03-24T10:20:00.451Z,78.53
2019-03-24T10:22:28.202Z,78.63
2019-03-24T10:24:55.505Z,79.84
2019-03-24T10:27:25.316Z,78.83
2019-03-24T10:29:53.140Z,78.29
2019-03-24T10:32:21.086Z,78.00
2019-03-24T10:34:49.663Z,76.79
2019-03-24T10:37:18.194Z,76.42
2019-03-24T10:39:46.770Z,76.54
2019-03-24T10:42:14.417Z,76.23
2019-03-24T10:44:43.854Z,75.30
2019-03-24T10:47:11.551Z,75.73
2019-03-24T10:49:38.755Z,75.26
2019-03-24T10:52:06.977Z,75.22
2019-03-24T10:54:34.316Z,74.29
2019-03-24T10:57:05.428Z,73.53
2019-03-24T10:59:37.562Z,72.70
2019-03-24T11:02:05.269Z,73.65
2019-03-24T11:04:34.082Z,72.93
2019-03-24T11:07:02.674Z,72.69
2019-03-24T11:09:29.784Z,71.47
2019-03-24T11:11:57.104Z,71.29
2019-03-24T11:14:24.280Z,70.12
2019-03-24T11:16:51.609Z,69.96
2019-03-24T11:19:19.143Z,70.09
2019-03-24T11:21:46.546Z,68.71
2019-03-24T11:24:15.983Z,68.53
2019-03-24T11:26:45.313Z,67.86
2019-03-24T11:29:12.947Z,68.14
2019-03-24T11:31:41.263Z,68.70
2019-03-24T11:34:09.398Z,67.87
2019-03-24T11:36:37.535Z,67.92
2019-03-24T11:39:06.699Z,67.10
2019-03-24T11:41:35.850Z,68.53
2019-03-24T11:44:03.667Z,67.90
2019-03-24T11:46:33.288Z,67.85
2019-03-24T11:49:00.954Z,68.06
2019-03-24T11:51:28.229Z,69.00
2019-03-24T11:53:58.284Z,69.23
2019-03-24T11:56:25.505Z,69.46
2019-03-24T11:58:53.009Z,70.25
2019-03-24T12:01:21.335Z,70.56
2019-03-24T12:03:50.299Z,70.57
2019-03-24T12:06:17.586Z,70.37
2019-03-24T12:08:46.762Z,70.46
2019-03-24T12:11:13.905Z,70.72
2019-03-24T12:13:41.290Z,70.97
2019-03-24T12:16:08.862Z,71.61
2019-03-24T12:18:38.219Z,72.26
2019-03-24T12:21:06.113Z,73.76
2019-03-24T12:23:33.530Z,74.66
2019-03-24T12:26:00.586Z,74.84
2019-03-24T12:28:30.269Z,74.90
2019-03-24T12:30:57.780Z,75.29
2019-03-24T12:33:25.876Z,75.97
2019-03-24T12:35:53.186Z,76.14
2019-03-24T12:38:21.064Z,76.05
2019-03-24T12:40:48.886Z,75.69
2019-03-24T12:43:19.596Z,76.19
2019-03-24T12:45:45.410Z,75.49
2019-03-24T12:48:13.310Z,76.02
2019-03-24T12:50:40.683Z,75.80
2019-03-24T12:53:08.297Z,75.39
2019-03-24T12:55:35.993Z,75.45
2019-03-24T12:58:03.359Z,74.93
2019-03-24T13:00:40.127Z,75.10
2019-03-24T13:03:07.572Z,74.99
2019-03-24T13:05:34.891Z,75.00
2019-03-24T13:08:15.956Z,74.69
2019-03-24T13:10:44.305Z,75.23
2019-03-24T13:13:11.744Z,75.09
2019-03-24T13:15:39.177Z,75.77
2019-03-24T13:18:07.136Z,75.69
2019-03-24T13:20:38.398Z,75.79
2019-03-24T13:23:04.100Z,76.13
2019-03-24T13:25:31.404Z,76.01
2019-03-24T13:27:58.624Z,76.05
2019-03-24T13:30:25.765Z,76.12
2019-03-24T13:32:53.109Z,75.79
2019-03-24T13:35:22.654Z,75.93
2019-03-24T13:37:50.472Z,75.04
2019-03-24T13:40:19.879Z,75.12
2019-03-24T13:42:47.549Z,74.74
2019-03-24T13:45:14.820Z,74.99
2019-03-24T13:47:44.796Z,74.59
2019-03-24T13:50:12.314Z,74.60
2019-03-24T13:52:40.066Z,75.03
2019-03-24T13:55:07.939Z,74.70
2019-03-24T13:57:35.452Z,74.95
2019-03-24T14:00:04.689Z,74.87
2019-03-24T14:02:32.364Z,75.24
2019-03-24T14:04:59.879Z,75.15
2019-03-24T14:07:28.657Z,75.01
2019-03-24T14:09:56.754Z,75.05
2019-03-24T14:12:24.082Z,74.93
2019-03-24T14:14:54.676Z,75.04
2019-03-24T14:17:22.887Z,75.22
2019-03-24T14:19:50.430Z,75.64
2019-03-24T14:22:18.196Z,75.76
2019-03-24T14:24:45.926Z,76.06
2019-03-24T14:27:13.741Z,76.13
2019-03-24T14:29:41.447Z,76.09
2019-03-24T14:32:08.889Z,76.23
2019-03-24T14:34:38.612Z,76.85
2019-03-24T14:37:06.592Z,76.95
2019-03-24T14:39:34.248Z,76.94
2019-03-24T14:42:02.099Z,77.42
2019-03-24T14:44:29.211Z,77.35
2019-03-24T14:46:57.178Z,77.27
2019-03-24T14:49:27.654Z,76.79
2019-03-24T14:51:54.841Z,76.94
2019-03-24T14:54:23.148Z,77.02
2019-03-24T14:56:50.630Z,76.93
2019-03-24T14:59:18.192Z,77.02
2019-03-24T15:01:47.705Z,77.21
2019-03-24T15:04:15.113Z,76.43
2019-03-24T15:06:45.937Z,75.32
2019-03-24T15:09:13.280Z,75.40
2019-03-24T15:11:40.792Z,74.48
2019-03-24T15:14:11.990Z,74.10
2019-03-24T15:16:39.111Z,73.94
2019-03-24T15:19:06.709Z,73.92
2019-03-24T15:21:35.005Z,74.19
2019-03-24T15:24:02.156Z,73.79
2019-03-24T15:26:30.447Z,74.04
2019-03-24T15:29:02.176Z,74.07
2019-03-24T15:31:29.280Z,74.23
2019-03-24T15:33:58.046Z,74.17
2019-03-24T15:36:25.277Z,74.24
2019-03-24T15:38:52.390Z,74.39
2019-03-24T15:41:19.959Z,74.35
2019-03-24T15:43:47.132Z,74.06
2019-03-24T15:46:14.445Z,73.88
2019-03-24T15:48:41.925Z,74.49
2019-03-24T15:51:16.711Z,74.59
2019-03-24T15:53:42.326Z,74.73
2019-03-24T15:56:09.442Z,74.85
2019-03-24T15:58:40.182Z,74.78
2019-03-24T16:01:07.628Z,74.42
2019-03-24T16:03:35.104Z,73.68
2019-03-24T16:06:03.445Z,73.62
2019-03-24T16:08:30.909Z,73.40
2019-03-24T16:10:58.093Z,72.96
2019-03-24T16:13:25.668Z,73.26
2019-03-24T16:15:53.997Z,73.05
2019-03-24T16:18:21.343Z,73.62
2019-03-24T16:20:48.447Z,73.56
2019-03-24T16:23:17.859Z,73.96
2019-03-24T16:25:50.519Z,74.23
2019-03-24T16:28:17.687Z,74.54
2019-03-24T16:30:45.506Z,74.41
2019-03-24T16:33:13.010Z,74.43
2019-03-24T16:35:40.146Z,74.90
2019-03-24T16:38:07.941Z,75.26
2019-03-24T16:40:35.738Z,75.76
2019-03-24T16:43:05.775Z,76.72
2019-03-24T16:45:33.486Z,76.87
2019-03-24T16:48:01.883Z,77.27
2019-03-24T16:50:29.643Z,77.43
2019-03-24T16:52:58.407Z,78.04
2019-03-24T16:55:26.997Z,77.95
2019-03-24T16:57:55.856Z,78.15
2019-03-24T17:00:26.325Z,78.54
2019-03-24T17:02:55.032Z,79.00
2019-03-24T17:05:24.678Z,78.38
2019-03-24T17:07:54.227Z,78.81
2019-03-24T17:10:22.139Z,79.15
2019-03-24T17:12:52.305Z,79.30
2019-03-24T17:15:22.349Z,79.33
2019-03-24T17:17:49.830Z,79.39
2019-03-24T17:20:17.783Z,79.52
2019-03-24T17:22:45.654Z,80.03
2019-03-24T17:25:17.578Z,80.36
2019-03-24T17:27:53.248Z,80.99
2019-03-24T17:30:20.523Z,81.39
2019-03-24T17:32:59.489Z,81.35
2019-03-24T17:35:28.592Z,81.41
2019-03-24T17:37:58.408Z,81.66
2019-03-24T17:40:26.217Z,82.15
2019-03-24T17:42:54.346Z,82.64
2019-03-24T17:45:22.232Z,82.93
2019-03-24T17:48:05.095Z,83.09
2019-03-24T17:50:41.406Z,83.28
2019-03-24T17:53:10.857Z,83.73
2019-03-24T17:55:38.322Z,84.37
2019-03-24T17:58:10.466Z,84.40
2019-03-24T18:00:43.733Z,84.68
2019-03-24T18:03:11.492Z,85.17
2019-03-24T18:05:43.769Z,85.18
2019-03-24T18:08:12.145Z,85.55
2019-03-24T18:10:39.582Z,85.36
2019-03-24T18:13:07.090Z,85.39
2019-03-24T18:15:36.524Z,85.94
2019-03-24T18:18:14.215Z,86.09
2019-03-24T18:20:46.704Z,85.92
2019-03-24T18:23:22.424Z,86.03
2019-03-24T18:25:55.463Z,86.29
2019-03-24T18:28:24.684Z,86.44
2019-03-24T18:30:53.403Z,86.93
2019-03-24T18:33:21.670Z,87.43
2019-03-24T18:35:54.254Z,87.06
2019-03-24T18:38:29.465Z,86.92
2019-03-24T18:41:25.896Z,86.67
2019-03-24T18:43:54.983Z,86.45
2019-03-24T18:46:26.525Z,86.54
2019-03-24T18:48:58.549Z,86.52
2019-03-24T18:51:32.690Z,86.34
2019-03-24T18:54:02.934Z,86.74
2019-03-24T18:56:30.646Z,87.64
2019-03-24T18:58:58.396Z,88.19
2019-03-24T19:01:26.133Z,88.09
2019-03-24T19:03:58.520Z,87.86
2019-03-24T19:06:28.773Z,87.69
2019-03-24T19:09:08.029Z,87.78
2019-03-24T19:11:39.565Z,87.83
2019-03-24T19:14:09.825Z,87.90
2019-03-24T19:16:38.027Z,88.32
2019-03-24T19:19:05.623Z,88.51
2019-03-24T19:21:32.925Z,88.28
2019-03-24T19:24:01.029Z,88.26
2019-03-24T19:26:28.312Z,88.45
2019-03-24T19:28:57.406Z,88.09
2019-03-24T19:31:25.036Z,88.32
2019-03-24T19:33:53.022Z,88.17
2019-03-24T19:36:20.862Z,88.37
2019-03-24T19:39:09.264Z,88.44
2019-03-24T19:41:42.257Z,88.46
2019-03-24T19:44:18.324Z,87.63
2019-03-24T19:46:50.823Z,87.92
2019-03-24T19:49:18.173Z,88.14
2019-03-24T19:51:48.358Z,88.46
2019-03-24T19:54:16.996Z,88.75
2019-03-24T19:56:47.402Z,88.88
2019-03-24T19:59:17.351Z,89.01
2019-03-24T20:01:47.400Z,89.02
2019-03-24T20:04:17.091Z,89.04
2019-03-24T20:06:47.097Z,88.94
2019-03-24T20:09:17.349Z,88.91
2019-03-24T20:11:52.065Z,88.86
2019-03-24T20:14:23.989Z,88.79
2019-03-24T20:17:01.404Z,88.48
2019-03-24T20:19:28.622Z,88.68
2019-03-24T20:21:55.976Z,88.58
2019-03-24T20:24:23.311Z,88.65
2019-03-24T20:26:56.407Z,88.79
2019-03-24T20:29:25.673Z,88.69
2019-03-24T20:31:55.703Z,88.64
2019-03-24T20:34:24.890Z,88.64
2019-03-24T20:36:54.586Z,88.70
2019-03-24T20:39:26.659Z,88.95
2019-03-24T20:41:56.222Z,89.45
2019-03-24T20:44:25.872Z,89.64
2019-03-24T20:46:53.036Z,89.88
2019-03-24T20:49:25.629Z,89.82
2019-03-24T20:52:01.813Z,89.81
2019-03-24T20:54:29.240Z,89.73
2019-03-24T20:56:57.815Z,89.71
2019-03-24T20:59:30.846Z,89.84
2019-03-24T21:02:04.702Z,89.91
2019-03-24T21:04:35.016Z,89.82
2019-03-24T21:07:02.894Z,89.87
2019-03-24T21:09:30.465Z,89.83
2019-03-24T21:11:59.633Z,89.90
2019-03-24T21:14:27.134Z,89.96
2019-03-24T21:16:56.879Z,89.80
2019-03-24T21:19:24.079Z,89.66
2019-03-24T21:21:57.392Z,89.64
2019-03-24T21:24:25.787Z,89.67
2019-03-24T21:26:52.922Z,89.47
2019-03-24T21:29:20.090Z,89.21
2019-03-24T21:31:47.284Z,89.20
2019-03-24T21:34:27.849Z,89.40
2019-03-24T21:36:54.930Z,89.37
2019-03-24T21:39:22.544Z,89.60
2019-03-24T21:41:50.801Z,89.69
2019-03-24T21:44:17.941Z,89.85
2019-03-24T21:46:46.138Z,89.99
2019-03-24T21:49:13.228Z,90.08
2019-03-24T21:51:40.466Z,90.19
2019-03-24T21:54:07.619Z,89.67
2019-03-24T21:56:34.738Z,89.84
2019-03-24T21:59:03.383Z,89.58
2019-03-24T22:01:30.436Z,89.55
2019-03-24T22:03:57.689Z,89.54
2019-03-24T22:06:27.320Z,89.14
2019-03-24T22:08:54.414Z,89.05
2019-03-24T22:11:21.500Z,89.07
2019-03-24T22:13:48.839Z,88.53
2019-03-24T22:16:15.949Z,87.92
2019-03-24T22:18:43.048Z,87.29
2019-03-24T22:21:11.430Z,86.78
2019-03-24T22:23:39.651Z,86.23
2019-03-24T22:26:06.699Z,85.80
2019-03-24T22:28:33.898Z,85.20
2019-03-24T22:31:00.977Z,84.90
2019-03-24T22:33:28.039Z,84.37
2019-03-24T22:35:55.405Z,83.93
2019-03-24T22:38:25.015Z,83.96
2019-03-24T22:40:52.012Z,83.74
2019-03-24T22:43:19.097Z,83.52
2019-03-24T22:45:46.174Z,83.28
2019-03-24T22:48:14.458Z,82.77
2019-03-24T22:50:41.553Z,82.80
2019-03-24T22:53:08.573Z,82.73
2019-03-24T22:55:35.795Z,82.97
2019-03-24T22:58:03.156Z,83.08
2019-03-24T23:00:50.044Z,83.25
2019-03-24T23:03:19.492Z,83.50
2019-03-24T23:05:46.681Z,83.85
2019-03-24T23:08:13.740Z,83.73
2019-03-24T23:10:47.415Z,84.02
2019-03-24T23:13:14.463Z,83.63
2019-03-24T23:15:41.671Z,83.57
2019-03-24T23:18:08.773Z,83.49
2019-03-24T23:20:36.083Z,83.23
2019-03-24T23:23:03.549Z,83.33
2019-03-24T23:25:30.613Z,83.73
2019-03-24T23:28:00.014Z,83.77
2019-03-24T23:30:27.126Z,83.52
2019-03-24T23:32:56.197Z,83.45
2019-03-24T23:35:26.820Z,83.64
2019-03-24T23:37:56.397Z,83.45
2019-03-24T23:40:26.039Z,83.12
2019-03-24T23:42:56.162Z,82.72
2019-03-24T23:45:32.545Z,82.30
2019-03-24T23:48:02.124Z,82.04
2019-03-24T23:50:29.470Z,80.92
2019-03-24T23:52:59.675Z,79.97
2019-03-24T23:55:26.910Z,79.13
2019-03-24T23:57:56.259Z,78.78
